Terminal Aerodrome Forecast
Issued by NWS

Home | Current Version | Previous Version | Text Only | Print | Product List | Glossary On
Versions: 1 2 3 4 5 6 7 8 9 10 11 12 13 14 15 16 17 18 19 20
000
FTUS41 KALY 302323
TAFPSF
TAF
KPSF 302323Z 3100/3124 31003KT P6SM BKN250
     FM310400 00000KT P6SM SCT250
      TEMPO 3105/3107 2SM BR VV006
     FM310700 00000KT 2SM BR VV006
      TEMPO 3107/3111 1/2SM FG VV004
     FM311200 27004KT P6SM SKC
     FM311700 28010KT P6SM SCT050 SCT250=

USA.gov is the U.S. government's official web portal to all federal, state and local government web resources and services.